createdAt,value
2023-12-31T00:00:45.053Z,6.52
2023-12-31T00:03:12.426Z,6.50
2023-12-31T00:05:39.757Z,6.51
2023-12-31T00:08:07.288Z,6.51
2023-12-31T00:10:34.592Z,6.49
2023-12-31T00:13:02.064Z,6.45
2023-12-31T00:15:29.433Z,6.44
2023-12-31T00:17:56.954Z,6.44
2023-12-31T00:20:32.557Z,6.44
2023-12-31T00:22:59.851Z,6.44
2023-12-31T00:25:27.254Z,6.45
2023-12-31T00:27:54.605Z,6.46
2023-12-31T00:30:23.415Z,6.46
2023-12-31T00:32:50.812Z,6.44
2023-12-31T00:35:18.045Z,6.46
2023-12-31T00:37:45.289Z,6.45
2023-12-31T00:40:12.984Z,6.44
2023-12-31T00:42:41.181Z,6.42
2023-12-31T00:45:09.479Z,6.42
2023-12-31T00:47:38.015Z,6.42
2023-12-31T00:50:05.554Z,6.41
2023-12-31T00:52:32.697Z,6.40
2023-12-31T00:55:00.004Z,6.40
2023-12-31T00:57:27.205Z,6.39
2023-12-31T00:59:54.442Z,6.39
2023-12-31T01:02:21.612Z,6.41
2023-12-31T01:04:49.022Z,6.39
2023-12-31T01:07:16.614Z,6.40
2023-12-31T01:09:43.980Z,6.40
2023-12-31T01:12:11.170Z,6.39
2023-12-31T01:14:38.725Z,6.40
2023-12-31T01:17:06.106Z,6.40
2023-12-31T01:19:33.789Z,6.40
2023-12-31T01:22:01.127Z,6.40
2023-12-31T01:24:28.455Z,6.39
2023-12-31T01:26:55.710Z,6.39
2023-12-31T01:29:22.967Z,6.38
2023-12-31T01:31:50.192Z,6.39
2023-12-31T01:34:17.554Z,6.40
2023-12-31T01:36:44.820Z,6.39
2023-12-31T01:39:12.073Z,6.39
2023-12-31T01:41:39.842Z,6.38
2023-12-31T01:44:08.284Z,6.37
2023-12-31T01:46:36.637Z,6.39
2023-12-31T01:49:04.208Z,6.42
2023-12-31T01:51:33.256Z,6.42
2023-12-31T01:54:03.419Z,6.43
2023-12-31T01:56:35.011Z,6.41
2023-12-31T01:59:03.418Z,6.39
2023-12-31T02:01:32.296Z,6.40
2023-12-31T02:03:59.732Z,6.41
2023-12-31T02:06:28.011Z,6.41
2023-12-31T02:08:55.334Z,6.41
2023-12-31T02:11:22.736Z,6.39
2023-12-31T02:13:50.018Z,6.40
2023-12-31T02:16:17.731Z,6.37
2023-12-31T02:18:46.990Z,6.41
2023-12-31T02:21:15.473Z,6.41
2023-12-31T02:23:43.413Z,6.42
2023-12-31T02:26:12.586Z,6.41
2023-12-31T02:28:41.117Z,6.40
2023-12-31T02:31:08.689Z,6.42
2023-12-31T02:33:36.167Z,6.42
2023-12-31T02:36:04.091Z,6.41
2023-12-31T02:38:31.333Z,6.40
2023-12-31T02:40:58.536Z,6.38
2023-12-31T02:43:25.886Z,6.38
2023-12-31T02:45:53.191Z,6.38
2023-12-31T02:48:22.364Z,6.39
2023-12-31T02:50:49.660Z,6.41
2023-12-31T02:53:16.916Z,6.44
2023-12-31T02:55:44.147Z,6.43
2023-12-31T02:58:11.428Z,6.46
2023-12-31T03:00:38.900Z,6.48
2023-12-31T03:03:06.434Z,6.43
2023-12-31T03:05:33.939Z,6.40
2023-12-31T03:08:01.219Z,6.40
2023-12-31T03:10:29.187Z,6.40
2023-12-31T03:12:56.391Z,6.41
2023-12-31T03:15:24.227Z,6.40
2023-12-31T03:17:51.620Z,6.39
2023-12-31T03:20:19.105Z,6.40
2023-12-31T03:22:48.247Z,6.40
2023-12-31T03:25:15.745Z,6.41
2023-12-31T03:27:43.333Z,6.42
2023-12-31T03:30:11.160Z,6.49
2023-12-31T03:32:38.466Z,6.50
2023-12-31T03:35:05.960Z,6.48
2023-12-31T03:37:33.371Z,6.46
2023-12-31T03:40:00.707Z,6.44
2023-12-31T03:42:27.958Z,6.48
2023-12-31T03:44:55.162Z,6.49
2023-12-31T03:47:22.390Z,6.46
2023-12-31T03:49:49.631Z,6.44
2023-12-31T03:52:17.580Z,6.42
2023-12-31T03:54:44.880Z,6.43
2023-12-31T03:57:12.033Z,6.45
2023-12-31T03:59:40.268Z,6.45
2023-12-31T04:02:07.526Z,6.46
2023-12-31T04:04:35.034Z,6.46
2023-12-31T04:07:02.332Z,6.46
2023-12-31T04:09:29.665Z,6.45
2023-12-31T04:11:56.832Z,6.48
2023-12-31T04:14:24.111Z,6.49
2023-12-31T04:16:51.306Z,6.51
2023-12-31T04:19:18.701Z,6.53
2023-12-31T04:21:46.075Z,6.52
2023-12-31T04:24:13.334Z,6.53
2023-12-31T04:26:45.962Z,6.51
2023-12-31T04:29:13.379Z,6.52
2023-12-31T04:31:48.004Z,6.52
2023-12-31T04:34:16.353Z,6.53
2023-12-31T04:36:47.003Z,6.53
2023-12-31T04:39:14.473Z,6.54
2023-12-31T04:41:41.654Z,6.55
2023-12-31T04:44:08.953Z,6.54
2023-12-31T04:46:36.283Z,6.55
2023-12-31T04:49:03.730Z,6.54
2023-12-31T04:51:31.930Z,6.54
2023-12-31T04:53:59.717Z,6.55
2023-12-31T04:56:28.363Z,6.57
2023-12-31T04:58:57.750Z,6.59
2023-12-31T05:01:25.131Z,6.58
2023-12-31T05:03:52.509Z,6.59
2023-12-31T05:06:19.757Z,6.60
2023-12-31T05:08:47.683Z,6.59
2023-12-31T05:11:15.850Z,6.60
2023-12-31T05:13:44.476Z,6.59
2023-12-31T05:16:16.769Z,6.59
2023-12-31T05:18:47.761Z,6.57
2023-12-31T05:21:15.146Z,6.57
2023-12-31T05:23:42.305Z,6.58
2023-12-31T05:26:09.578Z,6.59
2023-12-31T05:28:37.321Z,6.60
2023-12-31T05:31:04.768Z,6.60
2023-12-31T05:33:31.963Z,6.63
2023-12-31T05:35:59.240Z,6.63
2023-12-31T05:38:26.489Z,6.64
2023-12-31T05:40:53.709Z,6.64
2023-12-31T05:43:21.055Z,6.64
2023-12-31T05:45:48.326Z,6.67
2023-12-31T05:48:15.831Z,6.68
2023-12-31T05:50:43.552Z,6.66
2023-12-31T05:53:10.772Z,6.67
2023-12-31T05:55:38.048Z,6.68
2023-12-31T05:58:05.436Z,6.68
2023-12-31T06:00:34.362Z,6.68
2023-12-31T06:03:01.860Z,6.69
2023-12-31T06:05:29.484Z,6.70
2023-12-31T06:07:56.996Z,6.68
2023-12-31T06:10:24.340Z,6.68
2023-12-31T06:12:51.566Z,6.69
2023-12-31T06:15:18.836Z,6.69
2023-12-31T06:17:46.072Z,6.68
2023-12-31T06:20:13.362Z,6.69
2023-12-31T06:22:40.611Z,6.69
2023-12-31T06:25:08.120Z,6.69
2023-12-31T06:27:35.348Z,6.67
2023-12-31T06:30:02.544Z,6.69
2023-12-31T06:32:29.878Z,6.70
2023-12-31T06:34:57.178Z,6.70
2023-12-31T06:37:24.479Z,6.70
2023-12-31T06:39:52.465Z,6.69
2023-12-31T06:42:19.681Z,6.69
2023-12-31T06:44:46.944Z,6.68
2023-12-31T06:47:14.397Z,6.70
2023-12-31T06:49:41.638Z,6.70
2023-12-31T06:52:08.842Z,6.70
2023-12-31T06:54:36.017Z,6.69
2023-12-31T06:57:04.233Z,6.70
2023-12-31T06:59:32.498Z,6.70
2023-12-31T07:02:00.220Z,6.71
2023-12-31T07:04:27.844Z,6.73
2023-12-31T07:06:55.058Z,6.72
2023-12-31T07:09:22.327Z,6.73
2023-12-31T07:11:49.512Z,6.72
2023-12-31T07:14:16.719Z,6.73
2023-12-31T07:16:43.985Z,6.73
2023-12-31T07:19:11.369Z,6.73
2023-12-31T07:21:38.584Z,6.73
2023-12-31T07:24:05.960Z,6.72
2023-12-31T07:26:33.191Z,6.72
2023-12-31T07:29:09.679Z,6.73
2023-12-31T07:31:39.979Z,6.74
2023-12-31T07:34:08.248Z,6.75
2023-12-31T07:36:35.951Z,6.75
2023-12-31T07:39:05.598Z,6.74
2023-12-31T07:41:33.110Z,6.74
2023-12-31T07:44:01.845Z,6.75
2023-12-31T07:46:30.359Z,6.73
2023-12-31T07:48:58.265Z,6.76
2023-12-31T07:51:25.597Z,6.76
2023-12-31T07:53:53.649Z,6.75
2023-12-31T07:56:20.855Z,6.78
2023-12-31T07:58:48.262Z,6.75
2023-12-31T08:01:15.706Z,6.75
2023-12-31T08:03:43.129Z,6.76
2023-12-31T08:06:11.400Z,6.78
2023-12-31T08:08:39.007Z,6.79
2023-12-31T08:11:06.364Z,6.79
2023-12-31T08:13:34.518Z,6.79
2023-12-31T08:16:02.405Z,6.79
2023-12-31T08:18:29.784Z,6.79
2023-12-31T08:20:57.022Z,6.80
2023-12-31T08:23:24.185Z,6.79
2023-12-31T08:25:51.464Z,6.81
2023-12-31T08:28:18.702Z,6.79
2023-12-31T08:30:45.994Z,6.80
2023-12-31T08:33:13.373Z,6.80
2023-12-31T08:35:41.808Z,6.81
2023-12-31T08:38:09.137Z,6.82
2023-12-31T08:40:36.565Z,6.81
2023-12-31T08:43:05.057Z,6.82
2023-12-31T08:45:34.100Z,6.83
2023-12-31T08:48:01.412Z,6.82
2023-12-31T08:50:30.593Z,6.82
2023-12-31T08:52:57.952Z,6.81
2023-12-31T08:55:25.299Z,6.80
2023-12-31T08:57:52.725Z,6.80
2023-12-31T09:00:20.219Z,6.80
2023-12-31T09:02:48.621Z,6.79
2023-12-31T09:05:16.325Z,6.79
2023-12-31T09:07:44.033Z,6.79
2023-12-31T09:10:11.390Z,6.79
2023-12-31T09:12:38.950Z,6.79
2023-12-31T09:15:08.195Z,6.81
2023-12-31T09:17:37.186Z,6.81
2023-12-31T09:20:07.559Z,6.81
2023-12-31T09:22:35.112Z,6.81
2023-12-31T09:25:03.381Z,6.80
2023-12-31T09:27:30.947Z,6.81
2023-12-31T09:29:58.158Z,6.81
2023-12-31T09:32:25.387Z,6.80
2023-12-31T09:34:52.837Z,6.80
2023-12-31T09:37:21.248Z,6.80
2023-12-31T09:39:49.329Z,6.81
2023-12-31T09:42:51.169Z,6.82
2023-12-31T09:45:30.057Z,6.82
2023-12-31T09:48:01.547Z,6.83
2023-12-31T09:50:31.242Z,6.84
2023-12-31T09:52:59.565Z,6.84
2023-12-31T09:55:27.398Z,6.85
2023-12-31T09:57:55.129Z,6.85
2023-12-31T10:00:22.677Z,6.86
2023-12-31T10:02:53.320Z,6.87
2023-12-31T10:05:26.024Z,6.86
2023-12-31T10:07:56.477Z,6.89
2023-12-31T10:10:26.583Z,6.88
2023-12-31T10:12:53.794Z,6.88
2023-12-31T10:15:22.332Z,6.88
2023-12-31T10:17:49.694Z,6.89
2023-12-31T10:20:20.730Z,6.88
2023-12-31T10:22:49.810Z,6.90
2023-12-31T10:25:18.290Z,6.90
2023-12-31T10:27:49.987Z,6.91
2023-12-31T10:30:17.758Z,6.90
2023-12-31T10:32:45.561Z,6.90
2023-12-31T10:35:13.105Z,6.91
2023-12-31T10:37:41.591Z,6.93
2023-12-31T10:40:22.917Z,6.90
2023-12-31T10:42:54.181Z,6.90
2023-12-31T10:45:22.005Z,6.90
2023-12-31T10:47:55.205Z,6.91
2023-12-31T10:50:26.500Z,6.91
2023-12-31T10:52:56.971Z,6.91
2023-12-31T10:55:27.853Z,6.93
2023-12-31T10:57:55.172Z,6.93
2023-12-31T11:00:24.000Z,6.94
2023-12-31T11:02:52.622Z,6.94
2023-12-31T11:05:23.347Z,6.97
2023-12-31T11:07:51.430Z,6.98
2023-12-31T11:10:18.993Z,6.99
2023-12-31T11:12:50.306Z,6.99
2023-12-31T11:15:21.840Z,6.99
2023-12-31T11:18:10.853Z,6.99
2023-12-31T11:20:54.778Z,7.00
2023-12-31T11:23:48.387Z,7.01
2023-12-31T11:26:15.661Z,7.00
2023-12-31T11:28:50.362Z,6.99
2023-12-31T11:31:18.208Z,7.01
2023-12-31T11:33:46.087Z,7.02
2023-12-31T11:36:15.251Z,7.01
2023-12-31T11:38:58.304Z,7.03
2023-12-31T11:41:45.060Z,7.01
2023-12-31T11:44:39.636Z,7.01
2023-12-31T11:47:16.087Z,7.02
2023-12-31T11:49:47.645Z,7.02
2023-12-31T11:52:14.940Z,7.03
2023-12-31T11:54:42.477Z,7.04
2023-12-31T11:57:15.130Z,7.04
2023-12-31T11:59:45.474Z,7.04
2023-12-31T12:02:13.073Z,7.07
2023-12-31T12:04:40.375Z,7.05
2023-12-31T12:07:07.772Z,7.07
2023-12-31T12:09:36.031Z,7.05
2023-12-31T12:12:06.588Z,7.07
2023-12-31T12:14:35.203Z,7.07
2023-12-31T12:17:04.481Z,7.07
2023-12-31T12:19:37.820Z,7.07
2023-12-31T12:22:05.541Z,7.08
2023-12-31T12:24:33.043Z,7.09
2023-12-31T12:27:05.590Z,7.08
2023-12-31T12:29:35.022Z,7.08
2023-12-31T12:32:04.757Z,7.09
2023-12-31T12:34:32.155Z,7.08
2023-12-31T12:37:00.759Z,7.10
2023-12-31T12:39:28.023Z,7.10
2023-12-31T12:41:55.316Z,7.10
2023-12-31T12:44:24.021Z,7.10
2023-12-31T12:46:52.849Z,7.10
2023-12-31T12:49:21.612Z,7.10
2023-12-31T12:51:49.293Z,7.10
2023-12-31T12:54:16.641Z,7.10
2023-12-31T12:56:46.444Z,7.11
2023-12-31T12:59:14.161Z,7.11
2023-12-31T13:01:41.552Z,7.11
2023-12-31T13:04:12.517Z,7.13
2023-12-31T13:06:40.584Z,7.15
2023-12-31T13:09:11.049Z,7.18
2023-12-31T13:11:39.604Z,7.18
2023-12-31T13:14:07.044Z,7.19
2023-12-31T13:16:40.773Z,7.22
2023-12-31T13:19:15.287Z,7.19
2023-12-31T13:21:42.909Z,7.20
2023-12-31T13:24:10.111Z,7.18
2023-12-31T13:26:37.276Z,7.18
2023-12-31T13:29:05.336Z,7.19
2023-12-31T13:31:33.169Z,7.18
2023-12-31T13:34:00.880Z,7.18
2023-12-31T13:36:28.443Z,7.19
2023-12-31T13:38:55.871Z,7.18
2023-12-31T13:41:25.358Z,7.18
2023-12-31T13:43:52.743Z,7.19
2023-12-31T13:46:20.197Z,7.20
2023-12-31T13:48:47.902Z,7.19
2023-12-31T13:51:15.733Z,7.18
2023-12-31T13:53:43.213Z,7.16
2023-12-31T13:56:10.440Z,7.15
2023-12-31T13:58:37.753Z,7.15
2023-12-31T14:01:05.218Z,7.15
2023-12-31T14:03:32.516Z,7.14
2023-12-31T14:05:59.774Z,7.16
2023-12-31T14:08:27.078Z,7.16
2023-12-31T14:10:54.721Z,7.15
2023-12-31T14:13:22.500Z,7.15
2023-12-31T14:15:52.631Z,7.15
2023-12-31T14:18:20.022Z,7.13
2023-12-31T14:20:47.368Z,7.12
2023-12-31T14:23:14.753Z,7.13
2023-12-31T14:25:42.164Z,7.13
2023-12-31T14:28:09.530Z,7.14
2023-12-31T14:30:37.446Z,7.11
2023-12-31T14:33:06.507Z,7.11
2023-12-31T14:35:33.917Z,7.11
2023-12-31T14:38:01.226Z,7.11
2023-12-31T14:40:28.768Z,7.11
2023-12-31T14:42:56.244Z,7.11
2023-12-31T14:45:23.645Z,7.13
2023-12-31T14:47:51.019Z,7.12
2023-12-31T14:50:18.437Z,7.12
2023-12-31T14:52:48.395Z,7.11
2023-12-31T14:55:18.324Z,7.11
2023-12-31T14:57:45.482Z,7.14
2023-12-31T15:00:13.420Z,7.18
2023-12-31T15:02:41.113Z,7.22
2023-12-31T15:05:15.312Z,7.19
2023-12-31T15:07:45.724Z,7.18
2023-12-31T15:10:12.991Z,7.16
2023-12-31T15:12:41.129Z,7.17
2023-12-31T15:15:09.001Z,7.17
2023-12-31T15:17:36.402Z,7.18
2023-12-31T15:20:04.811Z,7.19
2023-12-31T15:22:32.242Z,7.19
2023-12-31T15:24:59.553Z,7.25
2023-12-31T15:27:26.817Z,7.31
2023-12-31T15:29:54.086Z,7.34
2023-12-31T15:32:21.322Z,7.31
2023-12-31T15:34:48.581Z,7.29
2023-12-31T15:37:15.816Z,7.27
2023-12-31T15:39:43.817Z,7.26
2023-12-31T15:42:11.213Z,7.23
2023-12-31T15:44:38.377Z,7.23
2023-12-31T15:47:05.703Z,7.20
2023-12-31T15:49:33.465Z,7.20
2023-12-31T15:52:00.928Z,7.23
2023-12-31T15:54:28.276Z,7.22
2023-12-31T15:56:55.592Z,7.22
2023-12-31T15:59:22.933Z,7.20
2023-12-31T16:01:50.376Z,7.19
2023-12-31T16:04:17.570Z,7.18
2023-12-31T16:06:44.944Z,7.17
2023-12-31T16:09:12.169Z,7.18
2023-12-31T16:11:40.024Z,7.18
2023-12-31T16:14:07.254Z,7.18
2023-12-31T16:16:34.888Z,7.17
2023-12-31T16:19:02.688Z,7.16
2023-12-31T16:21:30.137Z,7.17
2023-12-31T16:23:57.311Z,7.20
2023-12-31T16:26:24.660Z,7.26
2023-12-31T16:28:51.898Z,7.24
2023-12-31T16:31:19.104Z,7.26
2023-12-31T16:33:46.359Z,7.25
2023-12-31T16:36:13.638Z,7.22
2023-12-31T16:38:41.101Z,7.24
2023-12-31T16:41:08.525Z,7.25
2023-12-31T16:43:39.111Z,7.22
2023-12-31T16:46:06.506Z,7.20
2023-12-31T16:48:33.985Z,7.20
2023-12-31T16:51:01.347Z,7.22
2023-12-31T16:53:28.933Z,7.26
2023-12-31T16:55:56.482Z,7.26
2023-12-31T16:58:23.894Z,7.25
2023-12-31T17:00:52.365Z,7.22
2023-12-31T17:03:20.278Z,7.19
2023-12-31T17:05:48.046Z,7.18
2023-12-31T17:08:15.655Z,7.18
2023-12-31T17:10:42.943Z,7.16
2023-12-31T17:13:10.193Z,7.17
2023-12-31T17:15:37.400Z,7.17
2023-12-31T17:18:05.122Z,7.16
2023-12-31T17:20:32.590Z,7.18
2023-12-31T17:22:59.906Z,7.18
2023-12-31T17:25:27.175Z,7.14
2023-12-31T17:27:54.627Z,7.12
2023-12-31T17:30:21.821Z,7.11
2023-12-31T17:32:49.247Z,7.14
2023-12-31T17:35:16.522Z,7.17
2023-12-31T17:37:43.920Z,7.17
2023-12-31T17:40:11.725Z,7.19
2023-12-31T17:42:38.936Z,7.16
2023-12-31T17:45:06.850Z,7.15
2023-12-31T17:47:34.185Z,7.12
2023-12-31T17:50:03.248Z,7.12
2023-12-31T17:52:30.625Z,7.15
2023-12-31T17:54:58.012Z,7.13
2023-12-31T17:57:25.195Z,7.12
2023-12-31T17:59:54.218Z,7.16
2023-12-31T18:02:22.535Z,7.15
2023-12-31T18:04:50.278Z,7.16
2023-12-31T18:07:17.800Z,7.16
2023-12-31T18:09:46.446Z,7.19
2023-12-31T18:12:13.702Z,7.18
2023-12-31T18:14:40.919Z,7.17
2023-12-31T18:17:08.218Z,7.16
2023-12-31T18:19:40.076Z,7.17
2023-12-31T18:22:07.637Z,7.16
2023-12-31T18:24:34.973Z,7.18
2023-12-31T18:27:02.217Z,7.17
2023-12-31T18:29:29.400Z,7.20
2023-12-31T18:31:56.664Z,7.25
2023-12-31T18:34:23.973Z,7.24
2023-12-31T18:36:53.008Z,7.27
2023-12-31T18:39:23.258Z,7.27
2023-12-31T18:41:50.701Z,7.27
2023-12-31T18:44:18.055Z,7.27
2023-12-31T18:46:45.570Z,7.28
2023-12-31T18:49:12.820Z,7.28
2023-12-31T18:51:42.685Z,7.26
2023-12-31T18:54:12.169Z,7.28
2023-12-31T18:56:39.423Z,7.28
2023-12-31T18:59:08.722Z,7.28
2023-12-31T19:01:36.161Z,7.27
2023-12-31T19:04:03.698Z,7.27
2023-12-31T19:06:31.104Z,7.27
2023-12-31T19:08:58.352Z,7.26
2023-12-31T19:11:26.118Z,7.26
2023-12-31T19:13:53.445Z,7.27
2023-12-31T19:16:20.688Z,7.27
2023-12-31T19:18:47.977Z,7.25
2023-12-31T19:21:20.183Z,7.27
2023-12-31T19:23:47.430Z,7.25
2023-12-31T19:26:14.639Z,7.25
2023-12-31T19:28:41.921Z,7.23
2023-12-31T19:31:09.117Z,7.19
2023-12-31T19:33:36.501Z,7.19
2023-12-31T19:36:04.375Z,7.23
2023-12-31T19:38:31.900Z,7.23
2023-12-31T19:40:59.960Z,7.22
2023-12-31T19:43:41.293Z,7.22
2023-12-31T19:46:15.776Z,7.20
2023-12-31T19:48:43.381Z,7.18
2023-12-31T19:51:10.780Z,7.20
2023-12-31T19:53:38.265Z,7.22
2023-12-31T19:56:06.251Z,7.20
2023-12-31T19:58:35.063Z,7.19
2023-12-31T20:01:02.891Z,7.18
2023-12-31T20:03:30.185Z,7.18
2023-12-31T20:05:57.508Z,7.18
2023-12-31T20:08:24.716Z,7.17
2023-12-31T20:10:52.655Z,7.17
2023-12-31T20:13:19.944Z,7.18
2023-12-31T20:15:49.100Z,7.18
2023-12-31T20:18:20.080Z,7.19
2023-12-31T20:20:47.406Z,7.19
2023-12-31T20:23:14.599Z,7.13
2023-12-31T20:25:44.892Z,7.14
2023-12-31T20:28:12.203Z,7.12
2023-12-31T20:30:39.899Z,7.08
2023-12-31T20:33:07.679Z,7.07
2023-12-31T20:35:35.279Z,7.02
2023-12-31T20:38:02.595Z,7.04
2023-12-31T20:40:29.785Z,7.08
2023-12-31T20:42:57.333Z,7.13
2023-12-31T20:45:27.593Z,7.14
2023-12-31T20:47:55.010Z,7.17
2023-12-31T20:50:26.357Z,7.18
2023-12-31T20:52:54.379Z,7.19
2023-12-31T20:55:22.060Z,7.18
2023-12-31T20:57:49.244Z,7.18
2023-12-31T21:00:16.846Z,7.14
2023-12-31T21:02:44.099Z,7.12
2023-12-31T21:05:11.415Z,7.10
2023-12-31T21:07:39.856Z,7.09
2023-12-31T21:10:07.623Z,7.10
2023-12-31T21:12:34.851Z,7.12
2023-12-31T21:15:02.235Z,7.12
2023-12-31T21:17:29.599Z,7.10
2023-12-31T21:19:56.855Z,7.13
2023-12-31T21:22:24.348Z,7.15
2023-12-31T21:24:51.590Z,7.16
2023-12-31T21:27:18.861Z,7.15
2023-12-31T21:29:46.030Z,7.16
2023-12-31T21:32:13.363Z,7.17
2023-12-31T21:34:40.711Z,7.17
2023-12-31T21:37:08.013Z,7.14
2023-12-31T21:39:35.234Z,7.16
2023-12-31T21:42:02.447Z,7.18
2023-12-31T21:44:31.397Z,7.17
2023-12-31T21:46:58.826Z,7.17
2023-12-31T21:49:26.535Z,7.13
2023-12-31T21:51:54.141Z,7.15
2023-12-31T21:54:21.455Z,7.17
2023-12-31T21:57:00.598Z,7.17
2023-12-31T21:59:30.775Z,7.19
2023-12-31T22:01:58.176Z,7.20
2023-12-31T22:04:25.464Z,7.18
2023-12-31T22:06:52.606Z,7.18
2023-12-31T22:09:19.915Z,7.18
2023-12-31T22:11:47.105Z,7.19
2023-12-31T22:14:14.338Z,7.16
2023-12-31T22:16:41.626Z,7.14
2023-12-31T22:19:09.052Z,7.15
2023-12-31T22:21:36.427Z,7.13
2023-12-31T22:24:03.963Z,7.14
2023-12-31T22:26:31.677Z,7.13
2023-12-31T22:28:58.988Z,7.13
2023-12-31T22:31:26.264Z,7.12
2023-12-31T22:33:53.896Z,7.09
2023-12-31T22:36:21.136Z,7.10
2023-12-31T22:38:48.356Z,7.12
2023-12-31T22:41:15.608Z,7.11
2023-12-31T22:43:43.007Z,7.10
2023-12-31T22:46:10.237Z,7.10
2023-12-31T22:48:37.452Z,7.11
2023-12-31T22:51:05.053Z,7.11
2023-12-31T22:53:32.244Z,7.10
2023-12-31T22:56:00.067Z,7.11
2023-12-31T22:58:27.350Z,7.10
2023-12-31T23:00:54.657Z,7.09
2023-12-31T23:03:21.892Z,7.09
2023-12-31T23:05:49.268Z,7.10
2023-12-31T23:08:16.553Z,7.08
2023-12-31T23:10:43.893Z,7.07
2023-12-31T23:13:11.188Z,7.09
2023-12-31T23:15:38.425Z,7.10
2023-12-31T23:18:06.098Z,7.08
2023-12-31T23:20:33.512Z,7.04
2023-12-31T23:23:00.809Z,7.01
2023-12-31T23:25:28.251Z,7.07
2023-12-31T23:27:55.510Z,7.04
2023-12-31T23:30:22.721Z,7.00
2023-12-31T23:32:49.965Z,7.00
2023-12-31T23:35:17.304Z,7.02
2023-12-31T23:37:44.745Z,7.04
2023-12-31T23:40:12.377Z,7.04
2023-12-31T23:42:39.671Z,7.04
2023-12-31T23:45:07.342Z,7.04
2023-12-31T23:47:34.544Z,7.00
2023-12-31T23:50:01.860Z,7.00
2023-12-31T23:52:29.165Z,7.00
2023-12-31T23:54:56.369Z,7.01
2023-12-31T23:57:23.525Z,7.03
2023-12-31T23:59:50.751Z,7.03
